• Join FlightAware (Why Join?)
  • Login
  • US Flag 
09:11PM EDT


 

Airport Tracker/Info


-or-


 

Live Flight TrackerFlight Track Log ✈ FSR411 ✈ 11-Feb-2014 ✈ KDET - KBWG

Flight Track Log - Related Links

Times and Time Zones

All times are in EST time to prevent confusion due to time zone crossing. See the FSR411 flight status page for this flight to view local times or setup timezone preferences in your user account.

Time Position Orientation Groundspeed Altitude Reporting Facility
EST Latitude Longitude Course Direction KTS MPH feet Rate Location/Type
08:06AM 42.4367 -83.0378 323° Northwest 172 198 2,100  Level Cleveland Center
08:07AM 42.4694 -82.9886 48° Northeast 256 295 4,300 1,680 Climbing Cleveland Center
08:08AM 42.4350 -82.9631 151° Southeast 259 298 5,100 1,740 Climbing Cleveland Center
08:08AM 42.4050 -82.9542 168° South 254 292 6,100 2,400 Climbing Cleveland Center
08:09AM 42.3569 -82.9406 168° South 261 300 7,600 2,160 Climbing Cleveland Center
08:09AM 42.3319 -82.9528 200° South 277 319 8,300 2,220 Climbing Cleveland Center
08:10AM 42.2914 -82.9778 205° Southwest 276 318 9,900 2,160 Climbing Cleveland Center
08:11AM 42.1969 -83.0358 204° Southwest 309 356 12,200 2,460 Climbing Cleveland Center
08:12AM 42.1036 -83.0897 203° Southwest 354 407 15,100 3,180 Climbing Cleveland Center
08:13AM 42.0044 -83.1483 204° Southwest 381 438 18,800 3,420 Climbing Cleveland Center
08:14AM 41.8967 -83.2108 203° Southwest 391 450 22,200 3,060 Climbing Cleveland Center
08:15AM 41.8014 -83.2658 203° Southwest 396 456 25,200 2,820 Climbing Cleveland Center
08:16AM 41.6994 -83.3256 204° Southwest 399 459 28,000 2,340 Climbing Cleveland Center
08:17AM 41.5814 -83.3400 185° South 440 506 30,100 1,980 Climbing Cleveland Center
08:18AM 41.4658 -83.3703 191° South 432 497 32,100 2,220 Climbing Cleveland Center
08:19AM 41.3417 -83.4419 203° Southwest 407 468 34,700 1,800 Climbing Cleveland Center
08:20AM 41.2417 -83.4978 203° Southwest 394 453 35,900 960 Climbing Cleveland Center
08:21AM 41.1394 -83.5589 204° Southwest 402 463 36,800 840 Climbing Cleveland Center
08:22AM 41.0411 -83.6136 203° Southwest 394 453 37,700 600 Climbing Cleveland Center
08:23AM 40.9614 -83.6611 204° Southwest 392 451 38,000 120 Climbing Indianapolis Center
08:24AM 40.8394 -83.7300 203° Southwest 396 456 38,000  Level Indianapolis Center
08:25AM 40.7381 -83.7892 204° Southwest 399 459 38,000  Level Indianapolis Center
08:26AM 40.6381 -83.8442 203° Southwest 393 452 38,000  Level Indianapolis Center
08:27AM 40.5383 -83.9014 204° Southwest 394 453 38,000  Level Indianapolis Center
08:28AM 40.4383 -83.9581 203° Southwest 393 452 38,000  Level Indianapolis Center
08:29AM 40.3389 -84.0125 203° Southwest 391 450 38,000  Level Indianapolis Center
08:30AM 40.2414 -84.0725 205° Southwest 391 450 38,000  Level Indianapolis Center
08:31AM 40.1314 -84.1561 210° Southwest 384 442 38,000  Level Indianapolis Center
08:32AM 40.0394 -84.2225 209° Southwest 382 440 38,000  Level Indianapolis Center
08:33AM 39.9467 -84.2900 209° Southwest 383 441 38,000  Level Indianapolis Center
08:34AM 39.8550 -84.3556 209° Southwest 381 438 38,000  Level Indianapolis Center
08:35AM 39.7625 -84.4219 209° Southwest 381 438 38,000  Level Indianapolis Center
08:36AM 39.6703 -84.4886 209° Southwest 381 438 38,000  Level Indianapolis Center
08:37AM 39.5778 -84.5547 209° Southwest 381 438 38,000  Level Indianapolis Center
08:38AM 39.4661 -84.6325 208° Southwest 382 440 38,000  Level Indianapolis Center
08:39AM 39.3733 -84.6997 209° Southwest 383 441 38,000  Level Indianapolis Center
08:40AM 39.2800 -84.7644 208° Southwest 382 440 38,000  Level Indianapolis Center
08:41AM 39.1886 -84.8297 209° Southwest 380 437 38,000  Level Indianapolis Center
08:42AM 39.0903 -84.8981 208° Southwest 378 435 38,000  Level Indianapolis Center
08:43AM 38.9981 -84.9628 209° Southwest 378 435 38,000  Level Indianapolis Center
08:44AM 38.9039 -85.0272 208° Southwest 381 438 38,000 -360 Level Indianapolis Center
08:45AM 38.8125 -85.0922 209° Southwest 379 436 37,300 -1,080 Descending Indianapolis Center
08:47AM 38.7228 -85.1544 208° Southwest 372 428 35,800 -1,440 Descending Indianapolis Center
08:48AM 38.6336 -85.2147 208° Southwest 372 428 34,400 -1,620 Descending Indianapolis Center
08:49AM 38.5206 -85.2939 209° Southwest 379 436 32,500 -1,680 Descending Indianapolis Center
08:50AM 38.4231 -85.3603 208° Southwest 387 445 31,000 -1,500 Descending Indianapolis Center
08:51AM 38.3258 -85.4256 208° Southwest 389 448 29,500 -1,500 Descending Indianapolis Center
08:52AM 38.2286 -85.4922 208° Southwest 392 451 28,000 -1,500 Descending Indianapolis Center
08:53AM 38.1286 -85.5603 208° Southwest 399 459 26,500 -1,620 Descending Indianapolis Center
08:54AM 38.0306 -85.6314 210° Southwest 402 463 24,700 -1,920 Descending Indianapolis Center
08:55AM 37.9361 -85.7017 210° Southwest 398 458 22,600 -2,160 Descending Indianapolis Center
08:56AM 37.8478 -85.7683 211° Southwest 384 442 20,400 -2,160 Descending Indianapolis Center
08:57AM 37.7592 -85.8344 211° Southwest 373 429 18,200 -1,920 Descending Indianapolis Center
08:58AM 37.6714 -85.8997 210° Southwest 367 422 16,500 -1,980 Descending Indianapolis Center
08:59AM 37.5856 -85.9631 210° Southwest 358 412 14,200 -2,280 Descending Indianapolis Center
09:00AM 37.4956 -86.0306 211° Southwest 351 404 11,900 -2,100 Descending Indianapolis Center
09:01AM 37.4164 -86.0875 210° Southwest 332 382 10,000 -1,920 Descending Indianapolis Center
09:02AM 37.3481 -86.1392 211° Southwest 293 337 8,100 -1,740 Descending Indianapolis Center
09:03AM 37.2833 -86.1861 210° Southwest 274 315 6,500 -1,620 Descending Indianapolis Center
09:04AM 37.2169 -86.2353 211° Southwest 272 313 4,800 -1,260 Descending Indianapolis Center
09:05AM 37.1531 -86.2814 210° Southwest 267 307 4,000 -420 Descending Indianapolis Center
09:06AM 37.0983 -86.3231 211° Southwest 235 270 4,000  Level Indianapolis Center
09:07AM 37.0494 -86.3567 209° Southwest 206 237 4,000  Level Indianapolis Center